Time;durP1;ratioP1;P1;durP2;ratioP2;P2;SDS_P1;SDS_P2;PMS_P1;PMS_P2;Temp;Humidity;BMP_temperature;BMP_pressure;BME280_temperature;BME280_humidity;BME280_pressure;Samples;Min_cycle;Max_cycle;Signal;HPM_P1;HPM_P2
2022/01/30 00:01:38;;;;;;;8.57;3.08;;;6.00;99.90;;;;;;4975138;28;20092;-77
2022/01/30 00:04:04;;;;;;;16.67;3.08;;;6.20;99.90;;;;;;4986712;28;20132;-76
2022/01/30 00:06:30;;;;;;;12.30;2.67;;;6.20;99.90;;;;;;5003731;28;20046;-80
2022/01/30 00:08:55;;;;;;;4.85;2.40;;;6.00;99.90;;;;;;4980966;28;20073;-77
2022/01/30 00:11:26;;;;;;;4.78;2.08;;;6.10;99.90;;;;;;4973760;28;20103;-80
2022/01/30 00:13:52;;;;;;;5.00;1.73;;;5.90;99.90;;;;;;4975357;28;20435;-76
2022/01/30 00:16:18;;;;;;;3.60;1.52;;;5.60;99.90;;;;;;4990055;28;20054;-78
2022/01/30 00:21:17;;;;;;;4.68;1.95;;;5.50;99.90;;;;;;4989099;28;20665;-79
2022/01/30 00:23:52;;;;;;;2.95;1.30;;;5.40;99.90;;;;;;5009230;28;20037;-78
2022/01/30 00:26:19;;;;;;;2.83;1.17;;;5.80;99.90;;;;;;4983757;28;20091;-77
2022/01/30 00:28:45;;;;;;;2.67;1.58;;;5.60;99.90;;;;;;4997477;28;20046;-77
2022/01/30 00:31:14;;;;;;;3.63;1.83;;;5.40;99.90;;;;;;4988388;28;20049;-76
2022/01/30 00:33:39;;;;;;;3.83;1.38;;;5.30;99.90;;;;;;4991659;28;20046;-76
2022/01/30 00:36:05;;;;;;;1.63;1.00;;;5.40;99.90;;;;;;4976210;28;20507;-77
2022/01/30 00:38:33;;;;;;;3.05;1.88;;;5.10;99.90;;;;;;4990689;28;20057;-76
2022/01/30 00:40:59;;;;;;;6.90;1.80;;;5.50;99.90;;;;;;5002931;28;20050;-77
2022/01/30 00:43:24;;;;;;;6.78;2.22;;;5.60;99.90;;;;;;4984050;28;20076;-75
2022/01/30 00:45:50;;;;;;;10.68;2.63;;;5.60;99.90;;;;;;5002121;28;20124;-76
2022/01/30 00:48:17;;;;;;;5.28;2.10;;;5.30;99.90;;;;;;4991543;28;20053;-76
2022/01/30 00:50:42;;;;;;;6.03;1.63;;;5.70;99.90;;;;;;4988295;28;20042;-76
2022/01/30 00:53:08;;;;;;;11.55;1.48;;;5.70;99.90;;;;;;4990268;28;20034;-78
2022/01/30 00:55:35;;;;;;;3.95;1.27;;;5.40;99.90;;;;;;4988958;28;20057;-76
2022/01/30 00:58:02;;;;;;;7.75;1.77;;;5.60;99.90;;;;;;4974662;28;20444;-76
2022/01/30 01:00:29;;;;;;;9.73;2.08;;;5.40;99.90;;;;;;5004882;28;20073;-75
2022/01/30 01:02:55;;;;;;;3.70;1.45;;;5.40;99.90;;;;;;4991776;28;20065;-76
2022/01/30 01:05:21;;;;;;;4.70;2.17;;;5.20;99.90;;;;;;4974181;28;20054;-76
2022/01/30 01:07:48;;;;;;;4.05;1.67;;;5.50;99.90;;;;;;4991734;28;20518;-76
2022/01/30 01:10:33;;;;;;;5.78;2.28;;;5.50;99.90;;;;;;4970536;28;20042;-76
2022/01/30 01:23:22;;;;;;;5.25;2.00;;;5.60;99.90;;;;;;4989291;28;20050;-80
2022/01/30 01:23:51;;;;;;;17.27;2.97;;;5.40;99.90;;;;;;4988487;28;20054;-77
2022/01/30 01:26:19;;;;;;;12.27;2.83;;;5.80;99.90;;;;;;4997848;28;20044;-78
2022/01/30 01:28:45;;;;;;;9.63;1.67;;;6.00;99.90;;;;;;4992269;28;20038;-77
2022/01/30 01:31:11;;;;;;;;;;;5.70;99.90;;;;;;4990670;28;20042;-80
2022/01/30 01:36:22;;;;;;;9.77;2.20;;;5.70;99.90;;;;;;4981293;28;20046;-79
2022/01/30 01:38:48;;;;;;;4.43;1.92;;;5.60;99.90;;;;;;5003090;28;20125;-77
2022/01/30 01:41:18;;;;;;;8.85;2.95;;;5.30;99.90;;;;;;4999205;28;20431;-78
2022/01/30 01:43:44;;;;;;;12.32;2.30;;;5.30;99.90;;;;;;4994078;28;20054;-77
2022/01/30 01:46:16;;;;;;;7.68;1.95;;;5.10;99.90;;;;;;5006749;28;20476;-78
2022/01/30 01:48:43;;;;;;;9.82;1.35;;;5.50;99.90;;;;;;4979208;28;20044;-78
2022/01/30 01:51:17;;;;;;;6.60;2.15;;;5.30;99.90;;;;;;4989684;28;20488;-78
2022/01/30 01:53:44;;;;;;;13.80;3.65;;;5.30;99.90;;;;;;4985471;28;20244;-79
2022/01/30 01:56:12;;;;;;;10.45;1.65;;;5.10;99.90;;;;;;4990399;28;20054;-77
2022/01/30 01:58:37;;;;;;;7.55;2.85;;;5.00;99.90;;;;;;4989334;28;20050;-78
2022/01/30 02:01:03;;;;;;;8.23;1.73;;;5.40;99.90;;;;;;5004028;28;20042;-77
2022/01/30 02:03:29;;;;;;;6.35;1.95;;;5.60;99.90;;;;;;4991911;28;20050;-81
2022/01/30 02:05:59;;;;;;;3.10;2.00;;;5.00;99.90;;;;;;4993559;28;20114;-77
2022/01/30 02:11:01;;;;;;;17.05;3.25;;;5.60;99.90;;;;;;4990721;28;20499;-81
2022/01/30 02:24:30;;;;;;;5.90;2.22;;;6.00;99.90;;;;;;4984210;28;20046;-77
2022/01/30 02:26:56;;;;;;;3.33;1.70;;;5.30;99.90;;;;;;4997718;28;20050;-78
2022/01/30 02:29:22;;;;;;;8.63;1.83;;;5.60;99.90;;;;;;4977349;28;20044;-78
2022/01/30 02:31:48;;;;;;;5.32;1.45;;;5.70;99.90;;;;;;4994608;28;20109;-77
2022/01/30 02:34:14;;;;;;;4.53;1.70;;;5.30;99.90;;;;;;4994481;28;20484;-78
2022/01/30 02:36:49;;;;;;;14.25;2.13;;;5.60;99.90;;;;;;4991089;28;20353;-79
2022/01/30 02:39:16;;;;;;;2.35;1.88;;;5.40;99.90;;;;;;4996962;28;20048;-78
2022/01/30 02:41:42;;;;;;;12.10;2.60;;;5.70;99.90;;;;;;4994679;28;20081;-79
2022/01/30 02:46:47;;;;;;;13.57;2.50;;;5.60;99.90;;;;;;4979796;28;20053;-80
2022/01/30 02:50:10;;;;;;;7.80;3.00;;;5.60;99.90;;;;;;4998525;28;20050;-81
2022/01/30 02:52:04;;;;;;;8.40;2.15;;;5.20;99.90;;;;;;4982899;28;20042;-77
2022/01/30 02:54:30;;;;;;;14.00;3.00;;;5.20;99.90;;;;;;4993294;28;20069;-78
2022/01/30 02:56:57;;;;;;;6.57;2.63;;;5.80;99.90;;;;;;4994327;28;20050;-78
2022/01/30 02:59:22;;;;;;;8.18;2.85;;;5.70;99.90;;;;;;4995342;28;20602;-78
2022/01/30 03:01:49;;;;;;;9.25;2.75;;;5.30;99.90;;;;;;4990792;28;20058;-77
2022/01/30 03:04:17;;;;;;;7.35;3.50;;;5.50;99.90;;;;;;4995575;28;20054;-78
2022/01/30 03:06:43;;;;;;;4.03;1.98;;;5.60;99.90;;;;;;4993553;28;20054;-78
2022/01/30 03:09:10;;;;;;;12.63;2.63;;;5.80;99.90;;;;;;4995907;28;20117;-77
2022/01/30 03:11:36;;;;;;;6.78;2.05;;;5.90;99.90;;;;;;5006514;28;20097;-77
2022/01/30 03:14:02;;;;;;;16.23;3.35;;;5.40;99.90;;;;;;5010343;28;20046;-80
2022/01/30 03:16:28;;;;;;;11.98;2.53;;;5.80;99.90;;;;;;4999498;28;20060;-78
2022/01/30 03:18:54;;;;;;;24.77;3.28;;;5.80;99.90;;;;;;4968601;28;20046;-77
2022/01/30 03:21:20;;;;;;;5.22;2.30;;;6.30;99.90;;;;;;5002239;28;20164;-76
2022/01/30 03:23:46;;;;;;;;;;;5.70;99.90;;;;;;5000243;28;20034;-76
2022/01/30 03:26:13;;;;;;;11.10;3.17;;;6.10;99.90;;;;;;4993134;28;20360;-79
2022/01/30 03:28:42;;;;;;;9.48;3.50;;;5.90;99.90;;;;;;4992476;28;20050;-77
2022/01/30 03:31:11;;;;;;;8.32;3.33;;;6.00;99.90;;;;;;4993248;28;20073;-78
2022/01/30 03:33:37;;;;;;;10.90;2.42;;;6.10;99.90;;;;;;4964515;28;20117;-76
2022/01/30 03:36:03;;;;;;;14.43;4.13;;;6.10;99.90;;;;;;4995709;28;20484;-79
2022/01/30 03:38:30;;;;;;;4.40;2.30;;;5.90;99.90;;;;;;4973860;28;20098;-80
2022/01/30 03:40:56;;;;;;;8.05;3.30;;;6.00;99.90;;;;;;4996130;28;20060;-77
2022/01/30 03:43:22;;;;;;;15.38;3.70;;;6.00;99.90;;;;;;4992913;28;20038;-79
2022/01/30 03:45:48;;;;;;;14.52;2.70;;;6.20;99.90;;;;;;4984150;28;20047;-80
2022/01/30 03:48:14;;;;;;;;;;;5.80;99.90;;;;;;4975797;28;20042;-78
2022/01/30 03:50:41;;;;;;;6.38;2.20;;;5.60;99.90;;;;;;5000217;28;19918;-78
2022/01/30 03:53:07;;;;;;;8.15;3.65;;;5.80;99.90;;;;;;4977697;28;20038;-83
2022/01/30 03:55:33;;;;;;;;;;;5.80;99.90;;;;;;4998695;28;20050;-79
2022/01/30 03:57:58;;;;;;;10.00;2.78;;;5.50;99.90;;;;;;5014652;28;19940;-80
2022/01/30 04:00:24;;;;;;;11.52;3.40;;;5.80;99.90;;;;;;4998731;28;20042;-79
2022/01/30 04:02:50;;;;;;;8.77;3.00;;;5.30;99.90;;;;;;4959894;28;20062;-76
2022/01/30 04:05:16;;;;;;;12.98;3.10;;;5.30;99.90;;;;;;4990948;28;20047;-80
2022/01/30 04:07:44;;;;;;;10.20;3.53;;;5.40;99.90;;;;;;4998607;28;20038;-80
2022/01/30 04:10:10;;;;;;;9.68;2.80;;;5.70;99.90;;;;;;4993340;28;20093;-78
2022/01/30 04:12:36;;;;;;;;;;;5.50;99.90;;;;;;5003553;28;20152;-77
2022/01/30 04:15:03;;;;;;;8.38;2.80;;;5.60;99.90;;;;;;5012779;28;19977;-80
2022/01/30 04:17:29;;;;;;;15.15;2.88;;;5.50;99.90;;;;;;5001328;28;20057;-77
2022/01/30 04:19:55;;;;;;;12.98;2.97;;;5.50;99.90;;;;;;4992550;28;20066;-80
2022/01/30 04:22:21;;;;;;;5.88;1.77;;;5.40;99.90;;;;;;4996887;28;20041;-79
2022/01/30 04:24:46;;;;;;;14.05;3.83;;;5.90;99.90;;;;;;4992157;28;20130;-78
2022/01/30 04:27:12;;;;;;;6.50;2.58;;;6.10;99.90;;;;;;4994023;28;20435;-78
2022/01/30 04:29:38;;;;;;;25.50;3.55;;;5.60;99.90;;;;;;4991496;28;20042;-80
2022/01/30 04:32:04;;;;;;;11.68;3.08;;;5.70;99.90;;;;;;4997668;28;20049;-79
2022/01/30 04:34:31;;;;;;;4.32;3.42;;;5.70;99.90;;;;;;4979988;28;20357;-75
2022/01/30 04:37:13;;;;;;;6.55;3.15;;;5.90;99.90;;;;;;5020592;28;20052;-79
2022/01/30 04:40:10;;;;;;;10.15;3.03;;;5.70;99.90;;;;;;4989665;28;20050;-78
2022/01/30 05:04:00;;;;;;;7.05;2.72;;;6.20;99.90;;;;;;4993155;28;20400;-79
2022/01/30 05:06:52;;;;;;;11.45;4.22;;;6.20;99.90;;;;;;4962674;28;20050;-78
2022/01/30 05:09:14;;;;;;;9.70;2.92;;;6.10;99.90;;;;;;4990241;28;20109;-79
2022/01/30 05:11:40;;;;;;;10.43;3.10;;;6.00;99.90;;;;;;4999650;28;20034;-78
2022/01/30 05:14:05;;;;;;;17.70;4.35;;;6.20;99.90;;;;;;4994261;28;20130;-79
2022/01/30 05:16:34;;;;;;;13.13;3.38;;;6.00;99.90;;;;;;5008306;28;20500;-77
2022/01/30 05:19:00;;;;;;;4.82;3.00;;;6.10;99.90;;;;;;4993179;28;20359;-80
2022/01/30 05:21:26;;;;;;;13.07;2.72;;;6.10;99.90;;;;;;4990144;28;20046;-81
2022/01/30 05:23:52;;;;;;;17.65;4.28;;;6.10;99.90;;;;;;4966030;28;20045;-77
2022/01/30 05:26:22;;;;;;;9.60;3.05;;;6.10;99.90;;;;;;4995913;28;20511;-80
2022/01/30 05:28:48;;;;;;;14.25;2.33;;;6.00;99.90;;;;;;4988286;28;20118;-79
2022/01/30 05:31:13;;;;;;;13.30;2.17;;;6.00;99.90;;;;;;4990118;28;20130;-77
2022/01/30 05:33:39;;;;;;;14.98;2.83;;;6.10;99.90;;;;;;4992861;28;20061;-75
2022/01/30 05:36:07;;;;;;;11.95;2.92;;;5.90;99.90;;;;;;4992444;28;20099;-78
2022/01/30 05:38:33;;;;;;;7.45;2.95;;;5.90;99.90;;;;;;4969158;28;20078;-80
2022/01/30 05:40:59;;;;;;;15.60;3.28;;;5.80;99.90;;;;;;4968972;28;20507;-81
2022/01/30 05:43:28;;;;;;;9.82;2.47;;;5.70;99.90;;;;;;4982670;28;20133;-78
2022/01/30 05:46:06;;;;;;;5.10;3.00;;;5.50;99.90;;;;;;4974477;28;20050;-78
2022/01/30 05:48:32;;;;;;;16.17;2.60;;;5.50;99.90;;;;;;4974002;28;20404;-77
2022/01/30 05:50:58;;;;;;;7.22;2.13;;;5.30;99.90;;;;;;5000674;28;20052;-79
2022/01/30 05:53:25;;;;;;;8.27;3.30;;;5.20;99.90;;;;;;4979203;28;20046;-81
2022/01/30 05:55:51;;;;;;;5.50;2.88;;;5.70;99.90;;;;;;4948393;28;20043;-79
2022/01/30 05:58:17;;;;;;;17.95;3.22;;;5.30;99.90;;;;;;4999698;28;20042;-79
2022/01/30 06:00:42;;;;;;;14.85;3.40;;;4.80;99.90;;;;;;5002674;28;20050;-81
2022/01/30 06:03:08;;;;;;;9.98;3.50;;;4.80;99.90;;;;;;4996908;28;20412;-79
2022/01/30 06:05:34;;;;;;;13.18;3.55;;;5.00;99.90;;;;;;4994199;28;20097;-79
2022/01/30 06:08:09;;;;;;;13.68;2.25;;;4.90;99.90;;;;;;4994485;28;20070;-79
2022/01/30 06:10:35;;;;;;;7.43;3.03;;;4.80;99.90;;;;;;4995223;28;20038;-79
2022/01/30 06:13:01;;;;;;;16.90;3.72;;;5.40;99.90;;;;;;4977459;28;20065;-82
2022/01/30 06:15:27;;;;;;;8.38;2.42;;;4.80;99.90;;;;;;5005505;28;20379;-79
2022/01/30 06:17:52;;;;;;;19.75;4.25;;;5.00;99.90;;;;;;4990933;28;20500;-80
2022/01/30 06:20:18;;;;;;;14.00;3.83;;;4.90;99.90;;;;;;4994104;28;20050;-77
2022/01/30 06:22:44;;;;;;;7.60;1.83;;;5.40;99.90;;;;;;4992513;28;20054;-82
2022/01/30 06:25:10;;;;;;;9.18;3.25;;;5.80;99.90;;;;;;4994228;28;20050;-76
2022/01/30 06:27:36;;;;;;;5.55;2.50;;;5.60;99.90;;;;;;5001787;28;20062;-77
2022/01/30 06:30:06;;;;;;;12.63;5.00;;;5.70;99.90;;;;;;5007845;28;20088;-78
2022/01/30 06:32:32;;;;;;;9.65;3.10;;;5.40;99.90;;;;;;4988614;28;20377;-81
2022/01/30 06:34:58;;;;;;;6.47;2.67;;;5.40;99.90;;;;;;5002759;28;20112;-79
2022/01/30 06:37:24;;;;;;;3.38;2.50;;;5.60;99.90;;;;;;4994147;28;20468;-78
2022/01/30 06:39:50;;;;;;;8.93;3.13;;;5.80;99.90;;;;;;5003499;28;20068;-80
2022/01/30 06:42:16;;;;;;;3.05;2.17;;;5.80;99.90;;;;;;5001478;28;20427;-80
2022/01/30 06:44:43;;;;;;;4.20;3.53;;;5.80;99.90;;;;;;5001420;28;20061;-81
2022/01/30 06:47:09;;;;;;;8.40;2.70;;;5.90;99.90;;;;;;5003526;28;20112;-81
2022/01/30 06:49:35;;;;;;;;;;;5.80;99.90;;;;;;4999377;28;20571;-80
2022/01/30 06:52:01;;;;;;;10.15;2.58;;;5.90;99.90;;;;;;5005868;28;19980;-79
2022/01/30 06:54:26;;;;;;;3.33;1.95;;;6.10;99.90;;;;;;5001248;28;20150;-80
2022/01/30 06:56:52;;;;;;;12.40;3.03;;;5.80;99.90;;;;;;4987196;28;20054;-77
2022/01/30 06:59:18;;;;;;;5.47;3.00;;;6.10;99.90;;;;;;5003535;28;20042;-80
2022/01/30 07:01:44;;;;;;;11.68;2.40;;;5.70;99.90;;;;;;5001614;28;20450;-81
2022/01/30 07:04:10;;;;;;;4.57;1.77;;;5.90;99.90;;;;;;4986324;28;20081;-81
2022/01/30 07:06:36;;;;;;;10.80;2.30;;;6.00;99.90;;;;;;4996667;28;20046;-79
2022/01/30 07:09:01;;;;;;;13.38;2.92;;;5.80;99.90;;;;;;4980339;28;20543;-79
2022/01/30 07:11:27;;;;;;;1.77;1.42;;;5.40;99.90;;;;;;5000890;28;20045;-80
2022/01/30 07:13:53;;;;;;;7.78;2.72;;;5.70;99.90;;;;;;4966089;28;20124;-81
2022/01/30 07:16:18;;;;;;;12.55;2.90;;;5.50;99.90;;;;;;5005863;28;20129;-80
2022/01/30 07:18:44;;;;;;;5.38;2.65;;;5.90;99.90;;;;;;5000548;28;20124;-78
2022/01/30 07:21:10;;;;;;;5.03;2.47;;;5.70;99.90;;;;;;5002284;28;20033;-77
2022/01/30 07:23:37;;;;;;;3.80;2.45;;;5.80;99.90;;;;;;5005130;28;20087;-81
2022/01/30 07:26:03;;;;;;;10.48;3.10;;;5.60;99.90;;;;;;4988783;28;20047;-81
2022/01/30 07:28:29;;;;;;;11.90;2.78;;;5.40;99.90;;;;;;4975093;28;20479;-79
2022/01/30 07:30:55;;;;;;;4.00;2.22;;;5.80;99.90;;;;;;4984224;28;20050;-79
2022/01/30 07:33:22;;;;;;;6.70;2.40;;;5.70;99.90;;;;;;5001403;28;20045;-77
2022/01/30 07:35:49;;;;;;;;;;;5.80;99.90;;;;;;5006025;28;20044;-80
2022/01/30 07:38:15;;;;;;;;;;;5.80;99.90;;;;;;5004767;28;20029;-79
2022/01/30 07:40:41;;;;;;;6.88;2.38;;;5.70;99.90;;;;;;4991200;28;19918;-79
2022/01/30 07:43:08;;;;;;;;;;;5.90;99.90;;;;;;4988737;28;20400;-77
2022/01/30 07:45:34;;;;;;;17.83;2.55;;;5.70;99.90;;;;;;4983482;28;19926;-76
2022/01/30 07:47:59;;;;;;;3.03;2.28;;;5.70;99.90;;;;;;4984905;28;20069;-80
2022/01/30 07:50:25;;;;;;;7.38;2.47;;;6.00;99.90;;;;;;4986553;28;20121;-78
2022/01/30 07:52:51;;;;;;;7.40;2.38;;;5.90;99.90;;;;;;4974711;28;20469;-80
2022/01/30 07:55:17;;;;;;;6.95;3.00;;;5.90;99.90;;;;;;4988911;28;20042;-78
2022/01/30 07:57:43;;;;;;;11.57;2.53;;;5.60;99.90;;;;;;4988719;28;20561;-80
2022/01/30 08:00:09;;;;;;;10.48;2.63;;;6.00;99.90;;;;;;4987627;28;20121;-78
2022/01/30 08:02:34;;;;;;;11.55;2.15;;;5.80;99.90;;;;;;4974950;28;20384;-78
2022/01/30 08:05:00;;;;;;;3.72;2.03;;;6.00;99.90;;;;;;5001628;28;20058;-79
2022/01/30 08:07:27;;;;;;;19.83;3.63;;;6.30;99.90;;;;;;5001932;28;20467;-81
2022/01/30 08:09:52;;;;;;;5.93;2.08;;;6.00;99.90;;;;;;4995120;28;20035;-81
2022/01/30 08:12:22;;;;;;;6.13;2.38;;;5.70;99.90;;;;;;5005235;28;20124;-81
2022/01/30 08:14:48;;;;;;;12.70;3.20;;;6.00;99.90;;;;;;4993353;28;20050;-79
2022/01/30 08:17:20;;;;;;;20.45;4.28;;;6.00;99.90;;;;;;5001303;28;20114;-78
2022/01/30 08:19:46;;;;;;;15.60;4.28;;;5.70;99.90;;;;;;5004313;28;20084;-75
2022/01/30 08:22:13;;;;;;;4.68;3.38;;;6.00;99.90;;;;;;4991864;28;20069;-76
2022/01/30 08:24:38;;;;;;;7.28;2.83;;;6.30;99.90;;;;;;4992068;28;20050;-78
2022/01/30 08:27:05;;;;;;;10.05;1.58;;;6.00;99.90;;;;;;4983102;28;20038;-79
2022/01/30 08:29:34;;;;;;;5.57;2.20;;;5.80;99.90;;;;;;4995256;28;20046;-81
2022/01/30 08:32:11;;;;;;;12.50;1.90;;;6.30;99.90;;;;;;4960697;28;20476;-83
2022/01/30 08:34:58;;;;;;;;;;;;;;;;;;;;;
2022/01/30 08:37:36;;;;;;;12.27;2.05;;;5.70;99.90;;;;;;4991251;28;20050;-80
2022/01/30 08:40:09;;;;;;;3.30;2.25;;;5.60;99.90;;;;;;4973585;28;20483;-82
2022/01/30 08:42:35;;;;;;;13.18;3.72;;;6.00;99.90;;;;;;4968183;28;20092;-83
2022/01/30 08:45:03;;;;;;;10.65;2.05;;;5.90;99.90;;;;;;4969723;28;20120;-84
2022/01/30 08:47:28;;;;;;;10.40;4.55;;;6.00;99.90;;;;;;4996213;28;20495;-85
2022/01/30 08:49:54;;;;;;;7.38;2.53;;;5.80;99.90;;;;;;4984321;28;20115;-80
2022/01/30 08:52:20;;;;;;;11.75;2.50;;;5.90;99.90;;;;;;4987545;28;20038;-82
2022/01/30 08:54:48;;;;;;;4.05;2.20;;;5.40;99.90;;;;;;4950344;28;20046;-83
2022/01/30 08:57:14;;;;;;;9.23;2.55;;;5.90;99.90;;;;;;4991922;28;20093;-77
2022/01/30 08:59:40;;;;;;;;;;;5.90;99.90;;;;;;4970959;28;20049;-78
2022/01/30 09:02:06;;;;;;;15.48;3.28;;;5.70;99.90;;;;;;4974516;28;19918;-82
2022/01/30 09:04:33;;;;;;;17.27;2.92;;;6.30;99.90;;;;;;4962982;28;20090;-80
2022/01/30 09:06:58;;;;;;;6.05;2.15;;;5.80;99.90;;;;;;4993509;28;20049;-80
2022/01/30 09:09:25;;;;;;;2.30;2.13;;;5.60;99.90;;;;;;4973819;28;20356;-83
2022/01/30 09:11:51;;;;;;;3.78;1.48;;;5.80;99.90;;;;;;4962183;28;20435;-82
2022/01/30 09:14:27;;;;;;;8.07;2.50;;;6.00;99.90;;;;;;4991801;28;20058;-78
2022/01/30 09:16:53;;;;;;;9.68;2.38;;;6.30;99.90;;;;;;4983316;28;20042;-78
2022/01/30 09:19:19;;;;;;;22.83;3.20;;;6.50;99.90;;;;;;4989060;28;20056;-80
2022/01/30 09:21:46;;;;;;;9.48;2.30;;;6.30;99.90;;;;;;4969387;28;20599;-81
2022/01/30 09:24:13;;;;;;;11.68;2.40;;;6.20;99.90;;;;;;4989164;28;20062;-79
2022/01/30 09:26:38;;;;;;;4.80;1.70;;;6.10;99.90;;;;;;4966576;28;20639;-77
2022/01/30 09:29:04;;;;;;;7.45;2.20;;;6.10;99.90;;;;;;4988802;28;20125;-77
2022/01/30 09:31:30;;;;;;;7.85;3.58;;;6.30;99.90;;;;;;4988790;28;20095;-77
2022/01/30 09:33:56;;;;;;;4.05;2.30;;;6.20;99.90;;;;;;4955145;28;20042;-83
2022/01/30 09:36:22;;;;;;;9.07;2.85;;;6.70;99.90;;;;;;4977598;28;20034;-82
2022/01/30 09:38:47;;;;;;;7.65;3.55;;;6.30;99.90;;;;;;4993348;28;20062;-80
2022/01/30 09:41:15;;;;;;;14.07;2.60;;;6.00;99.90;;;;;;4961772;28;20742;-80
2022/01/30 09:43:43;;;;;;;6.10;2.58;;;6.40;99.90;;;;;;4994789;28;20104;-81
2022/01/30 09:46:11;;;;;;;11.57;3.08;;;6.40;99.90;;;;;;4971089;28;20121;-79
2022/01/30 09:48:38;;;;;;;6.45;2.65;;;6.80;99.90;;;;;;4966804;28;20114;-80
2022/01/30 09:51:07;;;;;;;7.30;2.63;;;6.30;99.90;;;;;;4994058;28;20062;-80
2022/01/30 09:53:34;;;;;;;22.27;3.55;;;6.40;99.90;;;;;;4994991;28;20050;-81
2022/01/30 09:56:03;;;;;;;8.93;3.45;;;6.80;99.90;;;;;;4981525;28;20089;-84
2022/01/30 09:58:29;;;;;;;12.30;3.70;;;6.70;99.90;;;;;;4979853;28;20092;-83
2022/01/30 10:00:56;;;;;;;23.33;2.95;;;6.70;99.90;;;;;;4968785;28;20088;-80
2022/01/30 10:03:28;;;;;;;10.60;2.55;;;6.40;99.90;;;;;;4991698;28;20046;-82
2022/01/30 10:06:13;;;;;;;3.67;1.98;;;6.60;99.90;;;;;;4998348;28;20524;-81
2022/01/30 10:08:46;;;;;;;7.28;2.55;;;6.30;99.90;;;;;;4990625;28;20400;-82
2022/01/30 10:11:35;;;;;;;14.50;3.22;;;6.20;99.90;;;;;;4978041;28;20050;-80
2022/01/30 10:14:14;;;;;;;6.63;2.17;;;6.30;99.90;;;;;;4991506;28;20153;-81
2022/01/30 10:16:45;;;;;;;13.80;3.13;;;6.40;99.90;;;;;;4982274;28;20042;-77
2022/01/30 10:19:19;;;;;;;6.30;2.92;;;6.80;99.90;;;;;;4991724;28;20098;-79
2022/01/30 10:21:49;;;;;;;11.65;2.83;;;6.90;99.90;;;;;;4997120;28;20054;-81
2022/01/30 10:24:26;;;;;;;6.68;2.30;;;7.20;99.90;;;;;;4995209;28;20057;-84
2022/01/30 10:26:55;;;;;;;9.20;3.10;;;7.10;99.90;;;;;;4996049;28;20125;-78
2022/01/30 10:29:32;;;;;;;13.23;3.10;;;6.90;99.90;;;;;;4997787;28;20046;-82
2022/01/30 10:31:57;;;;;;;12.13;2.67;;;7.00;99.90;;;;;;4978398;28;20042;-85
2022/01/30 10:34:23;;;;;;;10.77;2.50;;;6.90;99.90;;;;;;4983050;28;20050;-85
2022/01/30 10:36:49;;;;;;;14.25;2.63;;;6.80;99.90;;;;;;4972255;28;20113;-84
2022/01/30 10:39:23;;;;;;;3.05;2.30;;;6.90;99.90;;;;;;4970684;28;20038;-81
2022/01/30 10:42:25;;;;;;;12.85;1.92;;;7.20;99.90;;;;;;4964967;28;20043;-87
2022/01/30 10:44:51;;;;;;;9.63;2.08;;;6.70;99.90;;;;;;4984139;28;20047;-83
2022/01/30 10:47:21;;;;;;;3.78;1.77;;;6.50;99.90;;;;;;5010966;28;20069;-84
2022/01/30 10:49:48;;;;;;;9.75;2.45;;;6.60;99.90;;;;;;4993028;28;20042;-83
2022/01/30 10:52:15;;;;;;;13.27;2.53;;;6.60;99.90;;;;;;4980932;28;20093;-83
2022/01/30 10:54:41;;;;;;;5.32;2.70;;;6.60;99.90;;;;;;4985787;28;20477;-81
2022/01/30 10:57:26;;;;;;;18.67;3.42;;;6.20;99.90;;;;;;4975084;28;20057;-80
2022/01/30 10:59:56;;;;;;;5.38;1.92;;;7.10;99.90;;;;;;4984661;28;20465;-81
2022/01/30 11:02:23;;;;;;;6.63;1.88;;;7.10;99.90;;;;;;5006192;28;20042;-81
2022/01/30 11:05:02;;;;;;;8.73;2.33;;;6.70;99.90;;;;;;4982986;28;20113;-83
2022/01/30 11:07:34;;;;;;;9.13;2.53;;;6.80;99.90;;;;;;4991940;28;20046;-86
2022/01/30 11:12:57;;;;;;;11.95;3.47;;;6.80;99.90;;;;;;4992693;28;20058;-79
2022/01/30 11:17:59;;;;;;;28.80;3.25;;;7.30;99.90;;;;;;4999203;28;20050;-82
2022/01/30 11:20:28;;;;;;;5.50;2.45;;;7.60;99.90;;;;;;4986714;28;20427;-84
2022/01/30 11:22:57;;;;;;;10.15;2.63;;;7.00;99.90;;;;;;4974666;28;20045;-78
2022/01/30 11:25:24;;;;;;;10.57;2.85;;;7.10;99.90;;;;;;4995850;28;20046;-81
2022/01/30 11:27:50;;;;;;;16.92;2.78;;;7.20;99.90;;;;;;4990943;28;20070;-77
2022/01/30 11:30:16;;;;;;;13.50;3.15;;;7.20;99.90;;;;;;4981083;28;20050;-80
2022/01/30 11:32:43;;;;;;;8.48;2.95;;;8.80;99.90;;;;;;4976223;28;20096;-78
2022/01/30 11:35:09;;;;;;;8.23;2.90;;;7.70;99.90;;;;;;4987284;28;20114;-78
2022/01/30 11:37:39;;;;;;;20.95;2.58;;;7.40;99.90;;;;;;5005381;28;20109;-78
2022/01/30 11:40:16;;;;;;;16.90;3.63;;;7.30;99.90;;;;;;5002188;28;20038;-78
2022/01/30 11:42:45;;;;;;;10.70;2.60;;;7.10;99.90;;;;;;4988921;28;20085;-78
2022/01/30 11:45:20;;;;;;;6.30;2.28;;;7.90;99.90;;;;;;4985097;28;20044;-78
2022/01/30 11:47:55;;;;;;;5.25;2.25;;;7.20;99.90;;;;;;4990379;28;20213;-83
2022/01/30 11:50:26;;;;;;;8.80;2.97;;;7.20;99.90;;;;;;4989031;28;20038;-79
2022/01/30 11:53:07;;;;;;;6.78;2.15;;;7.40;99.90;;;;;;4973675;28;20039;-84
2022/01/30 11:55:57;;;;;;;6.55;2.45;;;7.30;99.90;;;;;;4976308;28;20042;-85
2022/01/30 11:58:54;;;;;;;9.32;4.05;;;7.80;99.90;;;;;;4983487;28;20062;-82
2022/01/30 12:01:26;;;;;;;10.77;3.45;;;7.40;99.90;;;;;;4983624;28;20042;-83
2022/01/30 12:03:54;;;;;;;3.80;2.15;;;7.30;99.90;;;;;;5004393;28;20046;-84
2022/01/30 12:06:23;;;;;;;8.63;1.48;;;7.20;99.90;;;;;;4976638;28;20073;-85
2022/01/30 12:08:56;;;;;;;12.20;3.72;;;7.70;99.90;;;;;;4993949;28;20113;-81
2022/01/30 12:11:54;;;;;;;13.18;3.63;;;8.00;99.90;;;;;;4991591;28;20049;-78
2022/01/30 12:14:20;;;;;;;;;;;7.50;99.90;;;;;;4987352;28;20639;-82
2022/01/30 12:16:56;;;;;;;7.47;2.20;;;7.40;99.90;;;;;;4968745;28;19917;-84
2022/01/30 12:19:31;;;;;;;10.98;3.40;;;7.30;99.90;;;;;;4963713;28;20050;-76
2022/01/30 12:22:15;;;;;;;4.25;1.67;;;7.40;99.90;;;;;;4971871;28;20057;-82
2022/01/30 12:24:41;;;;;;;8.52;3.08;;;7.00;99.90;;;;;;4971951;28;20515;-79
2022/01/30 12:27:07;;;;;;;14.10;3.67;;;7.30;99.90;;;;;;4952897;28;20042;-81
2022/01/30 12:29:46;;;;;;;12.50;3.83;;;6.80;99.90;;;;;;4966327;28;20050;-82
2022/01/30 12:32:30;;;;;;;9.85;3.08;;;6.00;99.90;;;;;;4966937;28;20519;-86
2022/01/30 12:35:02;;;;;;;5.70;2.47;;;6.60;99.90;;;;;;4952838;28;20097;-77
2022/01/30 12:37:31;;;;;;;6.40;2.65;;;6.60;99.90;;;;;;4970026;28;20051;-78
2022/01/30 12:40:00;;;;;;;8.93;3.50;;;6.80;99.90;;;;;;4984660;28;20321;-78
2022/01/30 12:42:27;;;;;;;10.77;2.58;;;7.00;99.90;;;;;;4961939;28;20527;-81
2022/01/30 12:44:59;;;;;;;11.18;3.78;;;7.30;99.90;;;;;;4956918;28;20062;-77
2022/01/30 12:47:25;;;;;;;8.30;2.85;;;7.40;99.90;;;;;;4996309;28;20053;-78
2022/01/30 12:49:53;;;;;;;10.30;2.47;;;7.90;99.90;;;;;;4991754;28;20038;-81
2022/01/30 12:52:37;;;;;;;16.20;2.83;;;7.90;99.90;;;;;;5004124;28;20056;-79
2022/01/30 12:55:12;;;;;;;9.52;2.60;;;8.40;99.90;;;;;;5000112;28;20053;-78
2022/01/30 12:57:40;;;;;;;19.83;4.03;;;7.80;99.90;;;;;;4978599;28;20583;-79
2022/01/30 13:00:09;;;;;;;9.60;3.58;;;7.90;99.90;;;;;;5005477;28;20049;-78
2022/01/30 13:02:38;;;;;;;5.95;1.65;;;7.80;99.90;;;;;;4990775;28;20431;-79
2022/01/30 13:05:08;;;;;;;3.92;2.00;;;7.90;99.90;;;;;;5007488;28;20053;-77
2022/01/30 13:07:38;;;;;;;13.80;4.65;;;7.50;99.90;;;;;;4992255;28;20050;-79
2022/01/30 13:10:12;;;;;;;3.33;2.08;;;8.10;99.90;;;;;;4979037;28;20038;-79
2022/01/30 13:12:45;;;;;;;9.68;2.17;;;7.90;99.90;;;;;;5005603;28;20075;-78
2022/01/30 13:15:32;;;;;;;8.98;2.35;;;7.80;99.90;;;;;;4982802;28;20391;-80
2022/01/30 13:18:01;;;;;;;17.60;3.10;;;8.00;99.90;;;;;;4992421;28;20049;-76
2022/01/30 13:20:28;;;;;;;16.92;3.53;;;7.60;99.90;;;;;;5001684;28;20053;-77
2022/01/30 13:22:55;;;;;;;9.52;3.05;;;7.70;99.90;;;;;;4991024;28;20407;-79
2022/01/30 13:25:22;;;;;;;14.73;3.25;;;7.50;99.90;;;;;;4995490;28;20042;-79
2022/01/30 13:27:52;;;;;;;5.05;2.67;;;7.30;99.90;;;;;;4991248;28;20073;-77
2022/01/30 13:30:30;;;;;;;3.20;2.17;;;7.20;99.90;;;;;;4988818;28;20043;-79
2022/01/30 13:32:56;;;;;;;9.38;3.15;;;7.10;99.90;;;;;;4990905;28;20831;-76
2022/01/30 13:35:24;;;;;;;7.82;2.97;;;7.30;99.90;;;;;;4986114;28;20038;-78
2022/01/30 13:37:53;;;;;;;9.23;2.33;;;7.10;99.90;;;;;;4990971;28;20053;-77
2022/01/30 13:40:28;;;;;;;3.05;2.35;;;7.60;99.90;;;;;;4981507;28;20041;-78
2022/01/30 13:42:59;;;;;;;9.45;3.20;;;7.60;99.90;;;;;;4997515;28;20048;-77
2022/01/30 13:48:18;;;;;;;6.75;2.65;;;7.30;99.90;;;;;;4996179;28;20097;-78
2022/01/30 13:50:49;;;;;;;;;;;7.20;99.90;;;;;;4998299;28;20053;-77
2022/01/30 13:53:21;;;;;;;6.60;1.83;;;7.00;99.90;;;;;;4990905;28;19926;-79
2022/01/30 13:55:55;;;;;;;8.00;2.25;;;7.00;99.90;;;;;;5000709;28;20058;-78
2022/01/30 13:58:25;;;;;;;1.88;1.15;;;7.00;99.90;;;;;;5006653;28;20046;-78
2022/01/30 14:00:52;;;;;;;14.00;2.78;;;6.70;99.90;;;;;;4997401;28;20046;-79
2022/01/30 14:03:27;;;;;;;;;;;6.50;99.90;;;;;;4990988;28;20077;-79
2022/01/30 14:05:54;;;;;;;5.25;2.03;;;6.30;99.90;;;;;;4992770;28;19921;-78